sensor_id;sensor_type;location;lat;lon;timestamp;pressure;altitude;pressure_sealevel;temperature;humidity
6032;BME280;3044;43.232;27.972;2022-08-25T00:01:59;45054.78;;;-143.84;68.70
6032;BME280;3044;43.232;27.972;2022-08-25T00:04:27;45052.88;;;-143.84;68.83
6032;BME280;3044;43.232;27.972;2022-08-25T00:06:55;45045.25;;;-143.84;69.29
6032;BME280;3044;43.232;27.972;2022-08-25T00:09:24;45049.06;;;-143.84;69.15
6032;BME280;3044;43.232;27.972;2022-08-25T00:11:53;45039.53;;;-143.84;69.70
6032;BME280;3044;43.232;27.972;2022-08-25T00:14:22;45085.25;;;-143.84;69.60
6032;BME280;3044;43.232;27.972;2022-08-25T00:16:49;45039.53;;;-143.84;69.36
6032;BME280;3044;43.232;27.972;2022-08-25T00:19:21;45056.69;;;-143.84;69.58
6032;BME280;3044;43.232;27.972;2022-08-25T00:21:49;45075.72;;;-143.84;69.52
6032;BME280;3044;43.232;27.972;2022-08-25T00:24:17;45047.16;;;-143.84;69.63
6032;BME280;3044;43.232;27.972;2022-08-25T00:26:47;45047.16;;;-143.84;69.60
6032;BME280;3044;43.232;27.972;2022-08-25T00:29:15;45031.94;;;-143.84;70.20
6032;BME280;3044;43.232;27.972;2022-08-25T00:31:43;45070.00;;;-143.84;70.45
6032;BME280;3044;43.232;27.972;2022-08-25T00:34:14;45092.88;;;-143.84;70.73
6032;BME280;3044;43.232;27.972;2022-08-25T00:36:44;45047.16;;;-143.84;70.98
6032;BME280;3044;43.232;27.972;2022-08-25T00:39:12;45056.69;;;-143.84;71.55
6032;BME280;3044;43.232;27.972;2022-08-25T00:41:41;45052.88;;;-143.84;71.43
6032;BME280;3044;43.232;27.972;2022-08-25T00:44:11;45037.66;;;-143.84;71.74
6032;BME280;3044;43.232;27.972;2022-08-25T00:46:41;45068.13;;;-143.84;72.17
6032;BME280;3044;43.232;27.972;2022-08-25T00:49:11;45071.91;;;-143.84;71.40
6032;BME280;3044;43.232;27.972;2022-08-25T00:51:43;45043.34;;;-143.84;71.62
6032;BME280;3044;43.232;27.972;2022-08-25T00:54:16;45081.44;;;-143.84;71.62
6032;BME280;3044;43.232;27.972;2022-08-25T00:56:45;45058.59;;;-143.84;71.64
6032;BME280;3044;43.232;27.972;2022-08-25T00:59:13;45068.13;;;-143.84;71.57
6032;BME280;3044;43.232;27.972;2022-08-25T01:01:41;45060.50;;;-143.84;71.49
6032;BME280;3044;43.232;27.972;2022-08-25T01:04:09;45071.91;;;-143.84;71.39
6032;BME280;3044;43.232;27.972;2022-08-25T01:06:38;45071.91;;;-143.84;70.71
6032;BME280;3044;43.232;27.972;2022-08-25T01:09:10;45039.53;;;-143.84;70.33
6032;BME280;3044;43.232;27.972;2022-08-25T01:11:38;45064.31;;;-143.84;70.60
6032;BME280;3044;43.232;27.972;2022-08-25T01:14:06;45085.25;;;-143.84;70.38
6032;BME280;3044;43.232;27.972;2022-08-25T01:16:33;45075.72;;;-143.84;70.42
6032;BME280;3044;43.232;27.972;2022-08-25T01:19:03;45071.91;;;-143.84;70.48
6032;BME280;3044;43.232;27.972;2022-08-25T01:21:38;45089.06;;;-143.84;70.41
6032;BME280;3044;43.232;27.972;2022-08-25T01:24:06;45066.22;;;-143.84;70.11
6032;BME280;3044;43.232;27.972;2022-08-25T01:26:37;45081.44;;;-143.84;69.92
6032;BME280;3044;43.232;27.972;2022-08-25T01:29:07;45100.47;;;-143.84;70.09
6032;BME280;3044;43.232;27.972;2022-08-25T01:31:53;45079.53;;;-143.84;70.04
6032;BME280;3044;43.232;27.972;2022-08-25T01:34:23;45083.34;;;-143.84;69.72
6032;BME280;3044;43.232;27.972;2022-08-25T01:36:53;45085.25;;;-143.84;69.82
6032;BME280;3044;43.232;27.972;2022-08-25T01:39:21;45064.31;;;-143.84;69.48
6032;BME280;3044;43.232;27.972;2022-08-25T01:44:37;45058.59;;;-143.84;68.86
6032;BME280;3044;43.232;27.972;2022-08-25T01:47:06;45054.78;;;-143.84;69.03
6032;BME280;3044;43.232;27.972;2022-08-25T01:49:34;45066.22;;;-143.84;69.20
6032;BME280;3044;43.232;27.972;2022-08-25T01:52:12;45068.13;;;-143.84;68.79
6032;BME280;3044;43.232;27.972;2022-08-25T01:54:41;45070.00;;;-143.84;68.84
6032;BME280;3044;43.232;27.972;2022-08-25T01:57:08;45079.53;;;-143.84;68.91
6032;BME280;3044;43.232;27.972;2022-08-25T01:59:35;45085.25;;;-143.84;68.69
6032;BME280;3044;43.232;27.972;2022-08-25T02:02:03;45066.22;;;-143.84;68.80
6032;BME280;3044;43.232;27.972;2022-08-25T02:04:31;45064.31;;;-143.84;68.36
6032;BME280;3044;43.232;27.972;2022-08-25T02:06:59;45052.88;;;-143.84;68.30
6032;BME280;3044;43.232;27.972;2022-08-25T02:09:27;45062.41;;;-143.84;68.85
6032;BME280;3044;43.232;27.972;2022-08-25T02:11:55;45060.50;;;-143.84;69.44
6032;BME280;3044;43.232;27.972;2022-08-25T02:14:22;45075.72;;;-143.84;69.19
6032;BME280;3044;43.232;27.972;2022-08-25T02:16:51;45066.22;;;-143.84;69.90
6032;BME280;3044;43.232;27.972;2022-08-25T02:19:21;45054.78;;;-143.84;70.14
6032;BME280;3044;43.232;27.972;2022-08-25T02:21:49;45068.13;;;-143.84;69.67
6032;BME280;3044;43.232;27.972;2022-08-25T02:24:16;45100.47;;;-143.84;70.17
6032;BME280;3044;43.232;27.972;2022-08-25T02:26:45;45045.25;;;-143.84;70.32
6032;BME280;3044;43.232;27.972;2022-08-25T02:29:12;45066.22;;;-143.84;70.24
6032;BME280;3044;43.232;27.972;2022-08-25T02:31:40;45094.78;;;-143.84;70.37
6032;BME280;3044;43.232;27.972;2022-08-25T02:34:08;45066.22;;;-143.84;70.47
6032;BME280;3044;43.232;27.972;2022-08-25T02:36:37;45062.41;;;-143.84;70.59
6032;BME280;3044;43.232;27.972;2022-08-25T02:39:07;45073.81;;;-143.84;70.60
6032;BME280;3044;43.232;27.972;2022-08-25T02:41:35;45079.53;;;-143.84;70.90
6032;BME280;3044;43.232;27.972;2022-08-25T02:44:05;45056.69;;;-143.84;70.80
6032;BME280;3044;43.232;27.972;2022-08-25T02:46:33;45089.06;;;-143.84;70.65
6032;BME280;3044;43.232;27.972;2022-08-25T02:49:00;45052.88;;;-143.84;70.51
6032;BME280;3044;43.232;27.972;2022-08-25T02:51:28;45073.81;;;-143.84;70.46
6032;BME280;3044;43.232;27.972;2022-08-25T02:53:56;45071.91;;;-143.84;70.76
6032;BME280;3044;43.232;27.972;2022-08-25T02:56:24;45077.63;;;-143.84;70.48
6032;BME280;3044;43.232;27.972;2022-08-25T02:58:51;45066.22;;;-143.84;70.54
6032;BME280;3044;43.232;27.972;2022-08-25T03:01:20;45083.34;;;-143.84;70.73
6032;BME280;3044;43.232;27.972;2022-08-25T03:03:50;45083.34;;;-143.84;70.95
6032;BME280;3044;43.232;27.972;2022-08-25T03:06:19;45087.16;;;-143.84;70.83
6032;BME280;3044;43.232;27.972;2022-08-25T03:08:49;45081.44;;;-143.84;70.94
6032;BME280;3044;43.232;27.972;2022-08-25T03:11:16;45030.03;;;-143.84;70.66
6032;BME280;3044;43.232;27.972;2022-08-25T03:13:44;45090.97;;;-143.84;70.16
6032;BME280;3044;43.232;27.972;2022-08-25T03:16:11;45064.31;;;-143.84;70.07
6032;BME280;3044;43.232;27.972;2022-08-25T03:18:40;45043.34;;;-143.84;70.41
6032;BME280;3044;43.232;27.972;2022-08-25T03:21:08;45079.53;;;-143.84;71.03
6032;BME280;3044;43.232;27.972;2022-08-25T03:23:37;45052.88;;;-143.84;70.87
6032;BME280;3044;43.232;27.972;2022-08-25T03:26:04;45079.53;;;-143.84;71.25
6032;BME280;3044;43.232;27.972;2022-08-25T03:28:49;45060.50;;;-143.84;70.91
6032;BME280;3044;43.232;27.972;2022-08-25T03:31:16;45071.91;;;-143.84;70.91
6032;BME280;3044;43.232;27.972;2022-08-25T03:33:45;45062.41;;;-143.84;71.77
6032;BME280;3044;43.232;27.972;2022-08-25T03:36:12;45031.94;;;-143.84;70.73
6032;BME280;3044;43.232;27.972;2022-08-25T03:38:39;45049.06;;;-143.84;70.85
6032;BME280;3044;43.232;27.972;2022-08-25T03:41:12;45087.16;;;-143.84;70.48
6032;BME280;3044;43.232;27.972;2022-08-25T03:43:40;45052.88;;;-143.84;71.71
6032;BME280;3044;43.232;27.972;2022-08-25T03:46:07;45070.00;;;-143.84;72.05
6032;BME280;3044;43.232;27.972;2022-08-25T03:48:35;45068.13;;;-143.84;71.71
6032;BME280;3044;43.232;27.972;2022-08-25T03:51:04;45047.16;;;-143.84;72.34
6032;BME280;3044;43.232;27.972;2022-08-25T03:53:31;45077.63;;;-143.84;72.37
6032;BME280;3044;43.232;27.972;2022-08-25T03:55:58;45077.63;;;-143.84;72.54
6032;BME280;3044;43.232;27.972;2022-08-25T03:58:25;45054.78;;;-143.84;72.96
6032;BME280;3044;43.232;27.972;2022-08-25T04:00:53;45050.97;;;-143.84;73.10
6032;BME280;3044;43.232;27.972;2022-08-25T04:03:24;45100.47;;;-143.84;73.65
6032;BME280;3044;43.232;27.972;2022-08-25T04:05:51;45064.31;;;-143.84;75.20
6032;BME280;3044;43.232;27.972;2022-08-25T04:08:20;45056.69;;;-143.84;75.38
6032;BME280;3044;43.232;27.972;2022-08-25T04:10:47;45106.19;;;-143.84;74.98
6032;BME280;3044;43.232;27.972;2022-08-25T04:13:14;45073.81;;;-143.84;75.16
6032;BME280;3044;43.232;27.972;2022-08-25T04:15:43;45090.97;;;-143.84;75.05
6032;BME280;3044;43.232;27.972;2022-08-25T04:18:10;45085.25;;;-143.84;74.59
6032;BME280;3044;43.232;27.972;2022-08-25T04:20:38;45039.53;;;-143.84;74.55
6032;BME280;3044;43.232;27.972;2022-08-25T04:23:06;45079.53;;;-143.84;74.72
6032;BME280;3044;43.232;27.972;2022-08-25T04:25:38;45083.34;;;-143.84;74.94
6032;BME280;3044;43.232;27.972;2022-08-25T04:28:06;45070.00;;;-143.84;75.98
6032;BME280;3044;43.232;27.972;2022-08-25T04:30:34;45062.41;;;-143.84;76.29
6032;BME280;3044;43.232;27.972;2022-08-25T04:33:01;45087.16;;;-143.84;76.95
6032;BME280;3044;43.232;27.972;2022-08-25T04:35:28;45075.72;;;-143.84;77.72
6032;BME280;3044;43.232;27.972;2022-08-25T04:37:55;45052.88;;;-143.84;77.29
6032;BME280;3044;43.232;27.972;2022-08-25T04:40:22;45064.31;;;-143.84;77.34
6032;BME280;3044;43.232;27.972;2022-08-25T04:42:52;45043.34;;;-143.84;76.56
6032;BME280;3044;43.232;27.972;2022-08-25T04:45:19;45064.31;;;-143.84;75.22
6032;BME280;3044;43.232;27.972;2022-08-25T04:47:46;45050.97;;;-143.84;74.56
6032;BME280;3044;43.232;27.972;2022-08-25T04:50:14;45041.44;;;-143.84;74.83
6032;BME280;3044;43.232;27.972;2022-08-25T04:52:41;45045.25;;;-143.84;72.73
6032;BME280;3044;43.232;27.972;2022-08-25T04:55:08;45049.06;;;-143.84;71.10
6032;BME280;3044;43.232;27.972;2022-08-25T04:57:35;45052.88;;;-143.84;70.92
6032;BME280;3044;43.232;27.972;2022-08-25T05:00:06;45014.78;;;-143.84;71.36
6032;BME280;3044;43.232;27.972;2022-08-25T05:02:33;45045.25;;;-143.84;71.76
6032;BME280;3044;43.232;27.972;2022-08-25T05:05:00;45024.31;;;-143.84;72.08
6032;BME280;3044;43.232;27.972;2022-08-25T05:07:28;45028.13;;;-143.84;73.04
6032;BME280;3044;43.232;27.972;2022-08-25T05:09:56;45062.41;;;-143.84;73.18
6032;BME280;3044;43.232;27.972;2022-08-25T05:12:23;45045.25;;;-143.84;72.59
6032;BME280;3044;43.232;27.972;2022-08-25T05:14:51;45071.91;;;-143.84;71.93
6032;BME280;3044;43.232;27.972;2022-08-25T05:17:20;45010.97;;;-143.84;72.02
6032;BME280;3044;43.232;27.972;2022-08-25T05:19:48;45020.50;;;-143.84;71.25
6032;BME280;3044;43.232;27.972;2022-08-25T05:22:15;45022.41;;;-143.84;70.80
6032;BME280;3044;43.232;27.972;2022-08-25T05:24:42;45026.22;;;-143.84;69.94
6032;BME280;3044;43.232;27.972;2022-08-25T05:27:09;45016.69;;;-143.84;69.59
6032;BME280;3044;43.232;27.972;2022-08-25T05:29:36;45007.19;;;-143.84;69.16
6032;BME280;3044;43.232;27.972;2022-08-25T05:32:04;45007.19;;;-143.84;68.57
6032;BME280;3044;43.232;27.972;2022-08-25T05:34:34;45022.41;;;-143.84;67.79
6032;BME280;3044;43.232;27.972;2022-08-25T05:37:01;44999.56;;;-143.84;67.54
6032;BME280;3044;43.232;27.972;2022-08-25T05:39:29;45016.69;;;-143.84;67.18
6032;BME280;3044;43.232;27.972;2022-08-25T05:41:57;45001.47;;;-143.84;67.75
6032;BME280;3044;43.232;27.972;2022-08-25T05:44:25;44997.66;;;-143.84;68.71
6032;BME280;3044;43.232;27.972;2022-08-25T05:46:53;45018.59;;;-143.84;68.90
6032;BME280;3044;43.232;27.972;2022-08-25T05:49:20;45018.59;;;-143.84;69.74
6032;BME280;3044;43.232;27.972;2022-08-25T05:51:48;45052.88;;;-143.84;69.74
6032;BME280;3044;43.232;27.972;2022-08-25T05:54:15;45014.78;;;-143.84;69.91
6032;BME280;3044;43.232;27.972;2022-08-25T05:56:43;45007.19;;;-143.84;69.40
6032;BME280;3044;43.232;27.972;2022-08-25T05:59:11;45014.78;;;-143.84;69.59
6032;BME280;3044;43.232;27.972;2022-08-25T06:01:38;45009.09;;;-143.84;69.22
6032;BME280;3044;43.232;27.972;2022-08-25T06:04:22;45018.59;;;-143.84;69.00
6032;BME280;3044;43.232;27.972;2022-08-25T06:06:51;45012.88;;;-143.84;69.41
6032;BME280;3044;43.232;27.972;2022-08-25T06:09:20;45007.19;;;-143.84;69.12
6032;BME280;3044;43.232;27.972;2022-08-25T06:11:47;45010.97;;;-143.84;69.46
6032;BME280;3044;43.232;27.972;2022-08-25T06:14:15;45037.66;;;-143.84;69.76
6032;BME280;3044;43.232;27.972;2022-08-25T06:16:42;44986.22;;;-143.84;69.44
6032;BME280;3044;43.232;27.972;2022-08-25T06:19:09;45018.59;;;-143.84;69.19
6032;BME280;3044;43.232;27.972;2022-08-25T06:21:37;44995.75;;;-143.84;68.25
6032;BME280;3044;43.232;27.972;2022-08-25T06:24:07;44974.81;;;-143.84;66.99
6032;BME280;3044;43.232;27.972;2022-08-25T06:26:35;44993.84;;;-143.84;65.78
6032;BME280;3044;43.232;27.972;2022-08-25T06:29:03;44995.75;;;-143.84;64.78
6032;BME280;3044;43.232;27.972;2022-08-25T06:31:30;44967.19;;;-143.84;63.32
6032;BME280;3044;43.232;27.972;2022-08-25T06:33:57;44986.22;;;-143.84;62.25
6032;BME280;3044;43.232;27.972;2022-08-25T06:36:24;44944.34;;;-143.84;61.88
6032;BME280;3044;43.232;27.972;2022-08-25T06:38:51;44940.53;;;-143.84;60.13
6032;BME280;3044;43.232;27.972;2022-08-25T06:41:20;44921.50;;;-143.84;59.13
6032;BME280;3044;43.232;27.972;2022-08-25T06:43:47;44931.00;;;-143.84;58.04
6032;BME280;3044;43.232;27.972;2022-08-25T06:46:17;44934.81;;;-143.84;57.70
6032;BME280;3044;43.232;27.972;2022-08-25T06:48:44;44951.97;;;-143.84;57.68
6032;BME280;3044;43.232;27.972;2022-08-25T06:51:14;44936.72;;;-143.84;57.91
6032;BME280;3044;43.232;27.972;2022-08-25T06:53:42;44993.84;;;-143.84;57.06
6032;BME280;3044;43.232;27.972;2022-08-25T06:56:11;44927.19;;;-143.84;57.54
6032;BME280;3044;43.232;27.972;2022-08-25T06:58:40;44923.41;;;-143.84;57.57
6032;BME280;3044;43.232;27.972;2022-08-25T07:01:09;44942.44;;;-143.84;57.67
6032;BME280;3044;43.232;27.972;2022-08-25T07:03:37;44971.00;;;-143.84;58.25
6032;BME280;3044;43.232;27.972;2022-08-25T07:06:04;44931.00;;;-143.84;58.80
6032;BME280;3044;43.232;27.972;2022-08-25T07:08:32;44951.97;;;-143.84;58.24
6032;BME280;3044;43.232;27.972;2022-08-25T07:11:03;44938.63;;;-143.84;57.39
6032;BME280;3044;43.232;27.972;2022-08-25T07:13:30;44934.81;;;-143.84;55.86
6032;BME280;3044;43.232;27.972;2022-08-25T07:15:59;44917.69;;;-143.84;54.57
6032;BME280;3044;43.232;27.972;2022-08-25T07:18:27;44948.16;;;-143.84;54.77
6032;BME280;3044;43.232;27.972;2022-08-25T07:20:54;44934.81;;;-143.84;54.97
6032;BME280;3044;43.232;27.972;2022-08-25T07:23:23;44942.44;;;-143.84;55.26
6032;BME280;3044;43.232;27.972;2022-08-25T07:25:50;44957.66;;;-143.84;54.48
6032;BME280;3044;43.232;27.972;2022-08-25T07:28:18;44925.31;;;-143.84;54.45
6032;BME280;3044;43.232;27.972;2022-08-25T07:30:46;44925.31;;;-143.84;55.94
6032;BME280;3044;43.232;27.972;2022-08-25T07:33:15;44911.97;;;-143.84;56.55
6032;BME280;3044;43.232;27.972;2022-08-25T07:35:42;44931.00;;;-143.84;55.50
6032;BME280;3044;43.232;27.972;2022-08-25T07:38:08;44915.78;;;-143.84;55.16
6032;BME280;3044;43.232;27.972;2022-08-25T07:40:37;44921.50;;;-143.84;54.15
6032;BME280;3044;43.232;27.972;2022-08-25T07:43:06;44927.19;;;-143.84;54.43
6032;BME280;3044;43.232;27.972;2022-08-25T07:45:35;44923.41;;;-143.84;53.60
6032;BME280;3044;43.232;27.972;2022-08-25T07:48:05;44917.69;;;-143.84;53.58
6032;BME280;3044;43.232;27.972;2022-08-25T07:50:35;44908.16;;;-143.84;52.05
6032;BME280;3044;43.232;27.972;2022-08-25T07:53:04;44934.81;;;-143.84;49.91
6032;BME280;3044;43.232;27.972;2022-08-25T07:55:32;44944.34;;;-143.84;50.09
6032;BME280;3044;43.232;27.972;2022-08-25T07:58:01;44911.97;;;-143.84;48.06
6032;BME280;3044;43.232;27.972;2022-08-25T08:00:29;44917.69;;;-143.84;49.06
6032;BME280;3044;43.232;27.972;2022-08-25T08:02:58;44900.53;;;-143.84;50.21
6032;BME280;3044;43.232;27.972;2022-08-25T08:05:26;44892.94;;;-143.84;49.67
6032;BME280;3044;43.232;27.972;2022-08-25T08:07:56;44908.16;;;-143.84;48.98
6032;BME280;3044;43.232;27.972;2022-08-25T08:10:24;44915.78;;;-143.84;46.24
6032;BME280;3044;43.232;27.972;2022-08-25T08:12:52;44915.78;;;-143.84;47.01
6032;BME280;3044;43.232;27.972;2022-08-25T08:15:19;44891.03;;;-143.84;45.53
6032;BME280;3044;43.232;27.972;2022-08-25T08:17:47;44915.78;;;-143.84;45.32
6032;BME280;3044;43.232;27.972;2022-08-25T08:20:15;44908.16;;;-143.84;45.83
6032;BME280;3044;43.232;27.972;2022-08-25T08:22:42;44887.22;;;-143.84;46.15
6032;BME280;3044;43.232;27.972;2022-08-25T08:25:12;44917.69;;;-143.84;44.61
6032;BME280;3044;43.232;27.972;2022-08-25T08:27:40;44900.53;;;-143.84;45.08
6032;BME280;3044;43.232;27.972;2022-08-25T08:30:11;44900.53;;;-143.84;44.67
6032;BME280;3044;43.232;27.972;2022-08-25T08:32:39;44908.16;;;-143.84;44.73
6032;BME280;3044;43.232;27.972;2022-08-25T08:35:07;44887.22;;;-143.84;43.84
6032;BME280;3044;43.232;27.972;2022-08-25T08:37:35;44868.19;;;-143.84;41.63
6032;BME280;3044;43.232;27.972;2022-08-25T08:40:08;44898.66;;;-143.84;43.10
6032;BME280;3044;43.232;27.972;2022-08-25T08:42:45;44883.41;;;-143.84;43.89
6032;BME280;3044;43.232;27.972;2022-08-25T08:45:28;44879.59;;;-143.84;42.08
6032;BME280;3044;43.232;27.972;2022-08-25T08:48:10;44841.53;;;-143.84;41.12
6032;BME280;3044;43.232;27.972;2022-08-25T08:50:50;44877.69;;;-143.84;42.19
6032;BME280;3044;43.232;27.972;2022-08-25T08:53:26;44854.84;;;-143.84;40.64
6032;BME280;3044;43.232;27.972;2022-08-25T08:55:57;44864.38;;;-143.84;40.11
6032;BME280;3044;43.232;27.972;2022-08-25T08:58:31;44835.81;;;-143.84;38.29
6032;BME280;3044;43.232;27.972;2022-08-25T09:01:01;44866.28;;;-143.84;38.80
6032;BME280;3044;43.232;27.972;2022-08-25T09:03:33;44828.19;;;-143.84;39.86
6032;BME280;3044;43.232;27.972;2022-08-25T09:06:05;44873.88;;;-143.84;39.98
6032;BME280;3044;43.232;27.972;2022-08-25T09:08:34;44843.44;;;-143.84;39.00
6032;BME280;3044;43.232;27.972;2022-08-25T09:11:06;44828.19;;;-143.84;38.76
6032;BME280;3044;43.232;27.972;2022-08-25T09:13:52;44841.53;;;-143.84;38.73
6032;BME280;3044;43.232;27.972;2022-08-25T09:16:27;44847.22;;;-143.84;38.49
6032;BME280;3044;43.232;27.972;2022-08-25T09:19:26;44873.88;;;-143.84;37.74
6032;BME280;3044;43.232;27.972;2022-08-25T09:22:00;44858.66;;;-143.84;38.04
6032;BME280;3044;43.232;27.972;2022-08-25T09:24:45;44841.53;;;-143.84;37.98
6032;BME280;3044;43.232;27.972;2022-08-25T09:27:24;44820.56;;;-143.84;37.39
6032;BME280;3044;43.232;27.972;2022-08-25T09:30:05;44828.19;;;-143.84;37.30
6032;BME280;3044;43.232;27.972;2022-08-25T09:32:35;44812.97;;;-143.84;37.93
6032;BME280;3044;43.232;27.972;2022-08-25T09:35:05;44812.97;;;-143.84;36.84
6032;BME280;3044;43.232;27.972;2022-08-25T09:37:34;44814.88;;;-143.84;34.65
6032;BME280;3044;43.232;27.972;2022-08-25T09:40:02;44811.06;;;-143.84;34.52
6032;BME280;3044;43.232;27.972;2022-08-25T09:42:45;44839.63;;;-143.84;34.05
6032;BME280;3044;43.232;27.972;2022-08-25T09:45:14;44833.91;;;-143.84;33.79
6032;BME280;3044;43.232;27.972;2022-08-25T09:47:42;44809.16;;;-143.84;34.86
6032;BME280;3044;43.232;27.972;2022-08-25T09:50:14;44835.81;;;-143.84;34.23
6032;BME280;3044;43.232;27.972;2022-08-25T09:52:42;44830.09;;;-143.84;33.59
6032;BME280;3044;43.232;27.972;2022-08-25T09:55:28;44805.34;;;-143.84;33.84
6032;BME280;3044;43.232;27.972;2022-08-25T09:57:57;44828.19;;;-143.84;34.31
6032;BME280;3044;43.232;27.972;2022-08-25T10:00:29;44845.31;;;-143.84;33.91
6032;BME280;3044;43.232;27.972;2022-08-25T10:03:07;44843.44;;;-143.84;33.91
6032;BME280;3044;43.232;27.972;2022-08-25T10:05:46;44856.75;;;-143.84;34.27
6032;BME280;3044;43.232;27.972;2022-08-25T10:08:25;44839.63;;;-143.84;34.89
6032;BME280;3044;43.232;27.972;2022-08-25T10:10:58;44845.31;;;-143.84;34.53
6032;BME280;3044;43.232;27.972;2022-08-25T10:13:37;44864.38;;;-143.84;34.22
6032;BME280;3044;43.232;27.972;2022-08-25T10:16:11;44839.63;;;-143.84;34.79
6032;BME280;3044;43.232;27.972;2022-08-25T10:18:40;44820.56;;;-143.84;35.22
6032;BME280;3044;43.232;27.972;2022-08-25T10:21:10;44862.47;;;-143.84;36.02
6032;BME280;3044;43.232;27.972;2022-08-25T10:23:41;44837.72;;;-143.84;35.76
6032;BME280;3044;43.232;27.972;2022-08-25T10:26:18;44809.16;;;-143.84;35.02
6032;BME280;3044;43.232;27.972;2022-08-25T10:28:56;44824.38;;;-143.84;35.03
6032;BME280;3044;43.232;27.972;2022-08-25T10:31:33;44828.19;;;-143.84;34.02
6032;BME280;3044;43.232;27.972;2022-08-25T10:34:11;44868.19;;;-143.84;34.74
6032;BME280;3044;43.232;27.972;2022-08-25T10:36:52;44797.72;;;-143.84;34.36
6032;BME280;3044;43.232;27.972;2022-08-25T10:39:34;44790.13;;;-143.84;34.84
6032;BME280;3044;43.232;27.972;2022-08-25T10:42:13;44860.56;;;-143.84;34.05
6032;BME280;3044;43.232;27.972;2022-08-25T10:44:53;44826.28;;;-143.84;36.32
6032;BME280;3044;43.232;27.972;2022-08-25T10:50:42;44852.94;;;-143.84;36.83
6032;BME280;3044;43.232;27.972;2022-08-25T10:53:25;44845.31;;;-143.84;36.54
6032;BME280;3044;43.232;27.972;2022-08-25T10:56:02;44807.25;;;-143.84;36.58
6032;BME280;3044;43.232;27.972;2022-08-25T10:58:45;44851.03;;;-143.84;36.79
6032;BME280;3044;43.232;27.972;2022-08-25T11:01:24;44845.31;;;-143.84;36.99
6032;BME280;3044;43.232;27.972;2022-08-25T11:03:59;44843.44;;;-143.84;37.74
6032;BME280;3044;43.232;27.972;2022-08-25T11:06:36;44854.84;;;-143.84;36.67
6032;BME280;3044;43.232;27.972;2022-08-25T11:09:07;44849.13;;;-143.84;37.19
6032;BME280;3044;43.232;27.972;2022-08-25T11:11:40;44835.81;;;-143.84;36.94
6032;BME280;3044;43.232;27.972;2022-08-25T11:14:16;44851.03;;;-143.84;36.89
6032;BME280;3044;43.232;27.972;2022-08-25T11:16:50;44814.88;;;-143.84;36.36
6032;BME280;3044;43.232;27.972;2022-08-25T11:19:25;44847.22;;;-143.84;36.64
6032;BME280;3044;43.232;27.972;2022-08-25T11:22:00;44858.66;;;-143.84;36.35
6032;BME280;3044;43.232;27.972;2022-08-25T11:24:41;44870.09;;;-143.84;36.03
6032;BME280;3044;43.232;27.972;2022-08-25T11:27:17;44866.28;;;-143.84;36.41
6032;BME280;3044;43.232;27.972;2022-08-25T11:29:55;44885.31;;;-143.84;35.42
6032;BME280;3044;43.232;27.972;2022-08-25T11:32:25;44902.44;;;-143.84;35.91
6032;BME280;3044;43.232;27.972;2022-08-25T11:35:00;44885.31;;;-143.84;35.71
6032;BME280;3044;43.232;27.972;2022-08-25T11:37:29;44896.75;;;-143.84;35.46
6032;BME280;3044;43.232;27.972;2022-08-25T11:40:15;44889.13;;;-143.84;35.72
6032;BME280;3044;43.232;27.972;2022-08-25T11:42:57;44883.41;;;-143.84;36.32
6032;BME280;3044;43.232;27.972;2022-08-25T11:48:29;44879.59;;;-143.84;36.28
6032;BME280;3044;43.232;27.972;2022-08-25T11:51:05;44883.41;;;-143.84;36.72
6032;BME280;3044;43.232;27.972;2022-08-25T11:53:34;44887.22;;;-143.84;37.23
6032;BME280;3044;43.232;27.972;2022-08-25T11:56:05;44887.22;;;-143.84;37.44
6032;BME280;3044;43.232;27.972;2022-08-25T11:58:47;44898.66;;;-143.84;37.81
6032;BME280;3044;43.232;27.972;2022-08-25T12:04:37;44889.13;;;-143.84;37.56
6032;BME280;3044;43.232;27.972;2022-08-25T12:07:25;44892.94;;;-143.84;37.50
6032;BME280;3044;43.232;27.972;2022-08-25T12:10:17;44889.13;;;-143.84;38.60
6032;BME280;3044;43.232;27.972;2022-08-25T12:13:03;44879.59;;;-143.84;38.54
6032;BME280;3044;43.232;27.972;2022-08-25T12:18:43;44891.03;;;-143.84;35.93
6032;BME280;3044;43.232;27.972;2022-08-25T12:21:29;44868.19;;;-143.84;35.99
6032;BME280;3044;43.232;27.972;2022-08-25T12:24:09;44906.25;;;-143.84;36.52
6032;BME280;3044;43.232;27.972;2022-08-25T12:26:43;44877.69;;;-143.84;36.21
6032;BME280;3044;43.232;27.972;2022-08-25T12:29:14;44894.84;;;-143.84;37.21
6032;BME280;3044;43.232;27.972;2022-08-25T12:32:01;44927.19;;;-143.84;37.07
6032;BME280;3044;43.232;27.972;2022-08-25T12:34:41;44911.97;;;-143.84;37.48
6032;BME280;3044;43.232;27.972;2022-08-25T12:37:14;44902.44;;;-143.84;37.48
6032;BME280;3044;43.232;27.972;2022-08-25T12:39:50;44911.97;;;-143.84;37.89
6032;BME280;3044;43.232;27.972;2022-08-25T12:42:24;44923.41;;;-143.84;37.52
6032;BME280;3044;43.232;27.972;2022-08-25T12:51:02;44932.91;;;-143.84;37.49
6032;BME280;3044;43.232;27.972;2022-08-25T12:53:34;44906.25;;;-143.84;37.94
6032;BME280;3044;43.232;27.972;2022-08-25T12:56:06;44898.66;;;-143.84;38.21
6032;BME280;3044;43.232;27.972;2022-08-25T12:58:46;44898.66;;;-143.84;39.45
6032;BME280;3044;43.232;27.972;2022-08-25T13:01:21;44908.16;;;-143.84;38.07
6032;BME280;3044;43.232;27.972;2022-08-25T13:04:06;44908.16;;;-143.84;37.78
6032;BME280;3044;43.232;27.972;2022-08-25T13:06:52;44904.34;;;-143.84;38.03
6032;BME280;3044;43.232;27.972;2022-08-25T13:09:46;44877.69;;;-143.84;38.19
6032;BME280;3044;43.232;27.972;2022-08-25T13:12:18;44894.84;;;-143.84;38.57
6032;BME280;3044;43.232;27.972;2022-08-25T13:14:52;44915.78;;;-143.84;37.93
6032;BME280;3044;43.232;27.972;2022-08-25T13:17:25;44911.97;;;-143.84;38.88
6032;BME280;3044;43.232;27.972;2022-08-25T13:20:13;44906.25;;;-143.84;38.95
6032;BME280;3044;43.232;27.972;2022-08-25T13:22:43;44921.50;;;-143.84;39.45
6032;BME280;3044;43.232;27.972;2022-08-25T13:25:17;44910.06;;;-143.84;39.97
6032;BME280;3044;43.232;27.972;2022-08-25T13:27:50;44923.41;;;-143.84;39.74
6032;BME280;3044;43.232;27.972;2022-08-25T13:30:24;44875.78;;;-143.84;38.15
6032;BME280;3044;43.232;27.972;2022-08-25T13:32:51;44936.72;;;-143.84;38.76